createdAt,value
2019-06-19T00:00:02.873Z,19.50
2019-06-19T00:02:30.054Z,19.50
2019-06-19T00:04:56.370Z,19.50
2019-06-19T00:07:23.793Z,19.40
2019-06-19T00:09:52.886Z,19.50
2019-06-19T00:12:18.678Z,19.50
2019-06-19T00:14:44.995Z,19.70
2019-06-19T00:17:12.999Z,19.60
2019-06-19T00:19:39.503Z,19.60
2019-06-19T00:22:05.882Z,19.70
2019-06-19T00:24:32.590Z,19.70
2019-06-19T00:26:59.054Z,19.80
2019-06-19T00:29:37.530Z,19.90
2019-06-19T00:31:53.979Z,19.90
2019-06-19T00:34:21.345Z,19.90
2019-06-19T00:36:47.890Z,19.80
2019-06-19T00:39:14.228Z,19.70
2019-06-19T00:41:41.212Z,19.50
2019-06-19T00:44:07.702Z,19.40
2019-06-19T00:46:35.106Z,19.40
2019-06-19T00:49:01.491Z,19.40
2019-06-19T00:51:31.131Z,19.40
2019-06-19T00:53:57.175Z,19.40
2019-06-19T00:56:25.401Z,19.40
2019-06-19T00:58:51.780Z,19.30
2019-06-19T01:01:22.048Z,19.30
2019-06-19T01:03:48.538Z,19.40
2019-06-19T01:06:14.880Z,19.30
2019-06-19T01:08:41.941Z,19.10
2019-06-19T01:11:11.180Z,19.00
2019-06-19T01:13:36.907Z,19.00
2019-06-19T01:16:03.234Z,18.90
2019-06-19T01:18:31.285Z,18.90
2019-06-19T01:20:58.116Z,19.00
2019-06-19T01:23:24.592Z,19.00
2019-06-19T01:25:51.766Z,19.00
2019-06-19T01:28:18.382Z,18.90
2019-06-19T01:30:44.758Z,18.80
2019-06-19T01:33:12.079Z,18.80
2019-06-19T01:35:41.504Z,18.70
2019-06-19T01:38:06.923Z,18.80
2019-06-19T01:40:33.246Z,18.80
2019-06-19T01:43:02.226Z,18.80
2019-06-19T01:45:27.865Z,18.80
2019-06-19T01:47:54.244Z,18.80
2019-06-19T01:50:21.719Z,18.80
2019-06-19T01:53:27.524Z,18.70
2019-06-19T01:55:53.844Z,18.80
2019-06-19T01:58:21.724Z,18.70
2019-06-19T02:00:48.208Z,18.60
2019-06-19T02:03:15.662Z,18.60
2019-06-19T02:05:41.968Z,18.60
2019-06-19T02:08:10.852Z,18.60
2019-06-19T02:10:36.672Z,18.70
2019-06-19T02:13:03.411Z,18.70
2019-06-19T02:15:31.348Z,18.70
2019-06-19T02:17:57.846Z,18.70
2019-06-19T02:20:24.184Z,18.70
2019-06-19T02:22:50.695Z,18.70
2019-06-19T02:25:20.859Z,18.90
2019-06-19T02:27:46.475Z,18.90
2019-06-19T02:30:14.936Z,19.00
2019-06-19T02:32:42.896Z,19.20
2019-06-19T02:35:12.243Z,19.10
2019-06-19T02:37:37.753Z,19.00
2019-06-19T02:40:07.347Z,18.80
2019-06-19T02:42:34.735Z,18.80
2019-06-19T02:45:01.069Z,18.80
2019-06-19T02:47:27.402Z,18.70
2019-06-19T02:49:53.763Z,18.70
2019-06-19T02:52:21.008Z,18.70
2019-06-19T02:54:47.357Z,18.70
2019-06-19T02:57:13.668Z,18.70
2019-06-19T02:59:40.079Z,18.80
2019-06-19T03:02:06.580Z,18.90
2019-06-19T03:04:32.945Z,18.90
2019-06-19T03:06:59.303Z,18.90
2019-06-19T03:09:26.726Z,19.00
2019-06-19T03:11:53.113Z,18.90
2019-06-19T03:14:19.447Z,19.10
2019-06-19T03:16:45.791Z,19.20
2019-06-19T03:19:12.453Z,19.20
2019-06-19T03:21:38.792Z,19.10
2019-06-19T03:24:05.113Z,18.90
2019-06-19T03:26:31.759Z,19.00
2019-06-19T03:29:00.006Z,19.00
2019-06-19T03:31:35.040Z,18.90
2019-06-19T03:33:54.996Z,18.90
2019-06-19T03:36:21.532Z,18.90
2019-06-19T03:38:48.075Z,19.00
2019-06-19T03:41:14.409Z,19.10
2019-06-19T03:43:40.720Z,19.20
2019-06-19T03:46:07.161Z,19.30
2019-06-19T03:48:33.529Z,19.40
2019-06-19T03:50:59.871Z,19.40
2019-06-19T03:53:26.227Z,19.40
2019-06-19T03:55:53.742Z,19.40
2019-06-19T03:58:21.740Z,19.30
2019-06-19T04:00:48.411Z,19.40
2019-06-19T04:03:16.039Z,19.50
2019-06-19T04:05:42.379Z,19.60
2019-06-19T04:08:08.718Z,19.60
2019-06-19T04:10:36.302Z,19.60
2019-06-19T04:13:02.973Z,19.50
2019-06-19T04:15:29.345Z,19.70
2019-06-19T04:17:55.703Z,19.80
2019-06-19T04:20:22.155Z,19.90
2019-06-19T04:22:48.958Z,19.90
2019-06-19T04:25:15.689Z,20.00
2019-06-19T04:27:42.328Z,20.30
2019-06-19T04:30:13.933Z,20.40
2019-06-19T04:32:41.486Z,20.50
2019-06-19T04:35:07.813Z,20.40
2019-06-19T04:37:34.582Z,20.60
2019-06-19T04:40:00.916Z,20.70
2019-06-19T04:42:27.303Z,20.80
2019-06-19T04:44:53.642Z,20.70
2019-06-19T04:47:20.101Z,20.80
2019-06-19T04:49:46.641Z,20.80
2019-06-19T04:52:13.219Z,20.90
2019-06-19T04:54:39.674Z,21.10
2019-06-19T04:57:06.019Z,21.20
2019-06-19T04:59:32.613Z,21.00
2019-06-19T05:01:59.338Z,21.10
2019-06-19T05:04:25.788Z,21.10
2019-06-19T05:06:52.375Z,21.10
2019-06-19T05:09:21.008Z,21.10
2019-06-19T05:11:47.394Z,21.10
2019-06-19T05:14:13.887Z,21.20
2019-06-19T05:16:40.407Z,21.50
2019-06-19T05:19:07.278Z,21.40
2019-06-19T05:21:33.707Z,21.50
2019-06-19T05:24:00.163Z,21.80
2019-06-19T05:26:28.529Z,21.70
2019-06-19T05:28:55.040Z,21.60
2019-06-19T05:31:21.374Z,21.70
2019-06-19T05:33:47.863Z,21.90
2019-06-19T05:36:14.232Z,22.30
2019-06-19T05:38:40.597Z,22.40
2019-06-19T05:41:06.902Z,22.60
2019-06-19T05:43:34.597Z,22.90
2019-06-19T05:46:00.923Z,23.20
2019-06-19T05:48:27.245Z,23.10
2019-06-19T05:50:53.624Z,23.10
2019-06-19T05:53:20.186Z,23.20
2019-06-19T05:55:46.587Z,23.30
2019-06-19T05:58:13.284Z,23.50
2019-06-19T06:00:39.657Z,23.40
2019-06-19T06:03:05.986Z,23.60
2019-06-19T06:05:32.524Z,23.80
2019-06-19T06:07:59.867Z,24.00
2019-06-19T06:10:26.369Z,24.30
2019-06-19T06:13:04.763Z,24.50
2019-06-19T06:15:31.344Z,24.50
2019-06-19T06:17:57.708Z,24.30
2019-06-19T06:20:38.433Z,24.30
2019-06-19T06:23:04.798Z,24.50
2019-06-19T06:25:32.834Z,24.50
2019-06-19T06:27:59.243Z,24.80
2019-06-19T06:30:25.628Z,24.90
2019-06-19T06:33:07.471Z,24.90
2019-06-19T06:35:20.502Z,25.20
2019-06-19T06:37:46.880Z,25.60
2019-06-19T06:40:13.375Z,25.80
2019-06-19T06:42:40.022Z,25.60
2019-06-19T06:45:07.496Z,25.80
2019-06-19T06:47:34.100Z,26.10
2019-06-19T06:50:00.581Z,26.30
2019-06-19T06:52:27.039Z,26.00
2019-06-19T06:54:53.381Z,26.20
2019-06-19T06:57:20.032Z,26.30
2019-06-19T06:59:46.368Z,26.70
2019-06-19T07:02:12.953Z,26.90
2019-06-19T07:04:39.400Z,27.00
2019-06-19T07:07:05.757Z,27.10
2019-06-19T07:09:33.284Z,27.00
2019-06-19T07:11:59.906Z,27.10
2019-06-19T07:14:26.215Z,27.30
2019-06-19T07:16:52.536Z,27.60
2019-06-19T07:19:18.902Z,27.70
2019-06-19T07:21:45.510Z,27.60
2019-06-19T07:24:11.855Z,27.90
2019-06-19T07:26:52.196Z,27.70
2019-06-19T07:29:07.345Z,27.50
2019-06-19T07:31:33.691Z,27.80
2019-06-19T07:34:00.034Z,28.10
2019-06-19T07:36:26.380Z,28.00
2019-06-19T07:38:53.586Z,28.00
2019-06-19T07:41:19.918Z,28.40
2019-06-19T07:43:46.266Z,28.60
2019-06-19T07:46:13.534Z,28.60
2019-06-19T07:48:39.852Z,28.10
2019-06-19T07:51:06.526Z,28.10
2019-06-19T07:53:32.962Z,28.30
2019-06-19T07:55:59.787Z,28.00
2019-06-19T07:58:26.137Z,27.90
2019-06-19T08:00:52.804Z,28.00
2019-06-19T08:03:20.339Z,27.90
2019-06-19T08:05:46.714Z,27.80
2019-06-19T08:08:13.057Z,27.90
2019-06-19T08:10:39.387Z,27.90
2019-06-19T08:13:05.861Z,28.00
2019-06-19T08:15:32.264Z,28.00
2019-06-19T08:17:58.625Z,28.10
2019-06-19T08:20:26.258Z,28.40
2019-06-19T08:22:52.576Z,28.50
2019-06-19T08:25:18.907Z,28.70
2019-06-19T08:27:45.220Z,28.70
2019-06-19T08:30:11.783Z,28.90
2019-06-19T08:32:39.231Z,29.10
2019-06-19T08:35:05.580Z,29.10
2019-06-19T08:37:31.889Z,29.20
2019-06-19T08:39:58.246Z,29.00
2019-06-19T08:42:24.594Z,29.20
2019-06-19T08:44:51.035Z,29.10
2019-06-19T08:47:17.407Z,29.20
2019-06-19T08:49:43.792Z,29.50
2019-06-19T08:52:10.522Z,29.60
2019-06-19T08:54:36.848Z,29.60
2019-06-19T08:57:03.230Z,29.60
2019-06-19T08:59:29.563Z,29.80
2019-06-19T09:01:55.923Z,29.90
2019-06-19T09:04:34.245Z,30.30
2019-06-19T09:06:50.609Z,30.30
2019-06-19T09:09:24.785Z,30.30
2019-06-19T09:11:51.431Z,30.40
2019-06-19T09:14:18.040Z,30.00
2019-06-19T09:16:44.690Z,29.80
2019-06-19T09:19:11.034Z,30.00
2019-06-19T09:21:37.391Z,30.10
2019-06-19T09:24:03.695Z,30.10
2019-06-19T09:26:30.311Z,30.10
2019-06-19T09:28:56.629Z,30.20
2019-06-19T09:31:22.968Z,30.30
2019-06-19T09:33:49.328Z,30.10
2019-06-19T09:36:15.865Z,30.20
2019-06-19T09:38:42.501Z,30.30
2019-06-19T09:41:08.827Z,30.40
2019-06-19T09:43:35.161Z,30.40
2019-06-19T09:46:02.284Z,30.30
2019-06-19T09:48:28.619Z,30.50
2019-06-19T09:50:54.978Z,30.50
2019-06-19T09:53:21.301Z,30.70
2019-06-19T09:55:47.663Z,31.00
2019-06-19T09:58:15.137Z,30.90
2019-06-19T10:00:42.069Z,30.80
2019-06-19T10:03:08.385Z,30.80
2019-06-19T10:05:34.779Z,31.20
2019-06-19T10:08:01.061Z,31.00
2019-06-19T10:10:30.171Z,30.90
2019-06-19T10:13:04.065Z,30.90
2019-06-19T10:15:30.460Z,31.00
2019-06-19T10:17:57.000Z,31.40
2019-06-19T10:20:23.838Z,31.10
2019-06-19T10:22:50.169Z,30.80
2019-06-19T10:25:16.851Z,30.90
2019-06-19T10:27:43.190Z,31.10
2019-06-19T10:30:10.835Z,31.30
2019-06-19T10:32:37.215Z,31.00
2019-06-19T10:35:03.642Z,31.20
2019-06-19T10:37:29.984Z,31.40
2019-06-19T10:39:56.326Z,31.50
2019-06-19T10:42:22.663Z,31.50
2019-06-19T10:44:48.979Z,31.40
2019-06-19T10:47:15.342Z,31.70
2019-06-19T10:49:41.679Z,32.20
2019-06-19T10:52:08.056Z,32.40
2019-06-19T10:54:34.787Z,32.40
2019-06-19T10:57:01.144Z,31.80
2019-06-19T10:59:27.475Z,31.70
2019-06-19T11:01:53.822Z,32.00
2019-06-19T11:04:20.138Z,32.00
2019-06-19T11:06:46.545Z,32.30
2019-06-19T11:09:12.878Z,32.50
2019-06-19T11:11:39.200Z,32.60
2019-06-19T11:14:05.610Z,32.80
2019-06-19T11:16:31.963Z,33.10
2019-06-19T11:18:58.309Z,32.90
2019-06-19T11:21:26.399Z,32.90
2019-06-19T11:23:52.878Z,33.00
2019-06-19T11:26:19.619Z,32.80
2019-06-19T11:28:45.943Z,32.50
2019-06-19T11:31:12.693Z,32.10
2019-06-19T11:33:41.841Z,32.00
2019-06-19T11:36:07.313Z,32.10
2019-06-19T11:38:33.628Z,32.20
2019-06-19T11:40:59.976Z,32.20
2019-06-19T11:43:26.324Z,32.10
2019-06-19T11:45:52.674Z,32.10
2019-06-19T11:48:19.345Z,32.30
2019-06-19T11:50:45.809Z,32.50
2019-06-19T11:53:12.443Z,32.10
2019-06-19T11:55:38.865Z,31.70
2019-06-19T11:58:05.226Z,32.00
2019-06-19T12:00:31.554Z,32.30
2019-06-19T12:02:57.897Z,32.50
2019-06-19T12:05:24.243Z,32.40
2019-06-19T12:07:51.090Z,32.80
2019-06-19T12:10:17.770Z,32.60
2019-06-19T12:12:44.245Z,32.60
2019-06-19T12:15:39.098Z,32.60
2019-06-19T12:18:05.904Z,32.90
2019-06-19T12:20:32.491Z,32.80
2019-06-19T12:22:58.935Z,33.50
2019-06-19T12:25:25.346Z,33.10
2019-06-19T12:27:51.732Z,32.80
2019-06-19T12:30:18.240Z,33.30
2019-06-19T12:32:46.801Z,33.80
2019-06-19T12:35:13.571Z,33.20
2019-06-19T12:37:40.913Z,33.00
2019-06-19T12:40:12.560Z,33.80
2019-06-19T12:42:38.903Z,33.10
2019-06-19T12:45:07.009Z,33.50
2019-06-19T12:47:33.451Z,33.50
2019-06-19T12:49:59.991Z,33.70
2019-06-19T12:52:26.382Z,34.10
2019-06-19T12:55:04.082Z,33.90
2019-06-19T12:57:21.190Z,33.50
2019-06-19T12:59:47.549Z,32.80
2019-06-19T13:02:13.876Z,32.20
2019-06-19T13:04:41.403Z,32.10
2019-06-19T13:07:08.885Z,32.60
2019-06-19T13:09:35.492Z,32.40
2019-06-19T13:12:01.869Z,32.00
2019-06-19T13:14:28.317Z,32.10
2019-06-19T13:16:55.033Z,32.40
2019-06-19T13:19:21.542Z,32.70
2019-06-19T13:21:47.924Z,33.20
2019-06-19T13:24:14.591Z,33.40
2019-06-19T13:26:40.955Z,33.30
2019-06-19T13:29:07.300Z,33.50
2019-06-19T13:31:33.709Z,34.20
2019-06-19T13:34:00.134Z,34.50
2019-06-19T13:36:26.572Z,35.00
2019-06-19T13:38:53.576Z,35.90
2019-06-19T13:41:21.585Z,35.50
2019-06-19T13:43:48.558Z,34.80
2019-06-19T13:46:14.905Z,33.00
2019-06-19T13:48:41.270Z,32.00
2019-06-19T13:51:07.614Z,31.80
2019-06-19T13:53:33.950Z,31.20
2019-06-19T13:56:00.323Z,31.20
2019-06-19T13:58:26.649Z,30.80
2019-06-19T14:00:52.990Z,30.90
2019-06-19T14:03:19.889Z,31.10
2019-06-19T14:05:46.640Z,30.80
2019-06-19T14:08:13.053Z,30.40
2019-06-19T14:10:39.407Z,30.60
2019-06-19T14:13:05.801Z,30.20
2019-06-19T14:15:33.967Z,30.10
2019-06-19T14:18:00.313Z,30.10
2019-06-19T14:20:26.742Z,30.20
2019-06-19T14:22:53.618Z,30.40
2019-06-19T14:25:20.552Z,30.10
2019-06-19T14:27:46.955Z,30.00
2019-06-19T14:30:13.965Z,30.00
2019-06-19T14:32:40.327Z,30.20
2019-06-19T14:35:11.949Z,30.30
2019-06-19T14:37:38.352Z,30.10
2019-06-19T14:40:06.153Z,30.30
2019-06-19T14:42:32.823Z,30.40
2019-06-19T14:44:59.483Z,30.20
2019-06-19T14:47:25.923Z,30.30
2019-06-19T14:49:52.282Z,30.40
2019-06-19T14:52:22.141Z,30.00
2019-06-19T14:54:50.071Z,29.80
2019-06-19T14:57:16.732Z,30.10
2019-06-19T14:59:45.485Z,30.20
2019-06-19T15:02:11.955Z,29.90
2019-06-19T15:04:40.050Z,30.00
2019-06-19T15:07:06.559Z,29.90
2019-06-19T15:09:46.973Z,30.10
2019-06-19T15:12:02.177Z,30.20
2019-06-19T15:14:28.510Z,30.20
2019-06-19T15:16:54.935Z,30.50
2019-06-19T15:19:21.461Z,30.60
2019-06-19T15:21:47.894Z,30.50
2019-06-19T15:24:14.233Z,30.20
2019-06-19T15:26:40.589Z,30.70
2019-06-19T15:29:07.037Z,31.20
2019-06-19T15:31:33.359Z,31.40
2019-06-19T15:33:59.750Z,30.90
2019-06-19T15:36:26.228Z,31.10
2019-06-19T15:38:52.678Z,31.20
2019-06-19T15:41:19.032Z,31.20
2019-06-19T15:43:45.381Z,31.20
2019-06-19T15:46:11.758Z,31.70
2019-06-19T15:48:38.222Z,31.70
2019-06-19T15:51:05.227Z,31.40
2019-06-19T15:53:31.549Z,31.20
2019-06-19T15:55:57.902Z,31.20
2019-06-19T15:58:24.320Z,30.70
2019-06-19T16:00:50.692Z,30.40
2019-06-19T16:03:17.238Z,30.50
2019-06-19T16:05:43.664Z,30.50
2019-06-19T16:08:25.161Z,30.40
2019-06-19T16:10:40.633Z,30.20
2019-06-19T16:13:07.155Z,29.80
2019-06-19T16:15:33.540Z,29.90
2019-06-19T16:18:00.136Z,30.00
2019-06-19T16:20:26.633Z,30.00
2019-06-19T16:22:53.067Z,30.00
2019-06-19T16:25:19.513Z,29.90
2019-06-19T16:27:45.908Z,29.70
2019-06-19T16:30:15.153Z,29.70
2019-06-19T16:32:42.000Z,29.50
2019-06-19T16:35:08.834Z,29.50
2019-06-19T16:37:35.201Z,29.50
2019-06-19T16:40:09.114Z,29.30
2019-06-19T16:42:35.173Z,29.30
2019-06-19T16:45:01.938Z,29.20
2019-06-19T16:47:29.921Z,29.00
2019-06-19T16:49:56.328Z,29.10
2019-06-19T16:52:23.147Z,29.10
2019-06-19T16:54:49.555Z,29.00
2019-06-19T16:57:15.948Z,28.90
2019-06-19T16:59:42.473Z,28.90
2019-06-19T17:02:08.857Z,29.10
2019-06-19T17:04:35.252Z,29.50
2019-06-19T17:07:01.721Z,29.70
2019-06-19T17:09:28.071Z,29.90
2019-06-19T17:11:54.457Z,29.90
2019-06-19T17:14:20.879Z,29.80
2019-06-19T17:16:47.177Z,30.20
2019-06-19T17:19:13.543Z,30.40
2019-06-19T17:21:51.004Z,30.60
2019-06-19T17:24:08.136Z,31.10
2019-06-19T17:26:34.496Z,31.80
2019-06-19T17:29:00.840Z,32.90
2019-06-19T17:31:27.228Z,34.40
2019-06-19T17:33:53.632Z,35.50
2019-06-19T17:36:20.019Z,36.80
2019-06-19T17:38:46.753Z,37.70
2019-06-19T17:41:13.321Z,38.00
2019-06-19T17:43:39.682Z,38.90
2019-06-19T17:46:06.064Z,38.60
2019-06-19T17:48:33.564Z,39.30
2019-06-19T17:50:59.901Z,39.40
2019-06-19T17:53:26.301Z,38.50
2019-06-19T17:55:52.704Z,38.90
2019-06-19T17:58:19.103Z,38.50
2019-06-19T18:00:45.450Z,38.30
2019-06-19T18:03:11.804Z,37.70
2019-06-19T18:05:38.275Z,37.40
2019-06-19T18:08:04.621Z,37.80
2019-06-19T18:10:31.158Z,37.80
2019-06-19T18:12:57.526Z,36.50
2019-06-19T18:15:23.904Z,36.40
2019-06-19T18:17:50.301Z,35.60
2019-06-19T18:20:17.022Z,35.30
2019-06-19T18:22:43.587Z,34.80
2019-06-19T18:25:10.356Z,34.90
2019-06-19T18:27:36.885Z,34.70
2019-06-19T18:30:09.399Z,33.70
2019-06-19T18:32:35.747Z,32.50
2019-06-19T18:35:03.142Z,32.20
2019-06-19T18:37:29.591Z,31.50
2019-06-19T18:39:56.192Z,30.40
2019-06-19T18:42:22.560Z,30.00
2019-06-19T18:44:48.997Z,29.40
2019-06-19T18:47:16.739Z,29.00
2019-06-19T18:49:43.215Z,28.60
2019-06-19T18:52:16.564Z,28.40
2019-06-19T18:54:42.968Z,28.30
2019-06-19T18:57:09.726Z,27.80
2019-06-19T18:59:36.134Z,27.50
2019-06-19T19:02:02.603Z,27.20
2019-06-19T19:04:28.964Z,27.10
2019-06-19T19:06:55.372Z,26.80
2019-06-19T19:09:21.753Z,26.70
2019-06-19T19:11:48.177Z,26.60
2019-06-19T19:14:14.568Z,26.30
2019-06-19T19:16:40.906Z,26.10
2019-06-19T19:19:07.363Z,26.00
2019-06-19T19:21:33.680Z,25.80
2019-06-19T19:24:00.064Z,25.70
2019-06-19T19:26:28.429Z,25.60
2019-06-19T19:28:54.969Z,25.40
2019-06-19T19:31:21.515Z,25.30
2019-06-19T19:33:47.965Z,25.20
2019-06-19T19:36:25.833Z,25.10
2019-06-19T19:38:45.845Z,24.90
2019-06-19T19:41:12.233Z,24.80
2019-06-19T19:43:38.667Z,24.70
2019-06-19T19:46:06.089Z,24.60
2019-06-19T19:48:32.481Z,24.50
2019-06-19T19:50:59.899Z,24.40
2019-06-19T19:53:26.268Z,24.50
2019-06-19T19:55:52.607Z,24.50
2019-06-19T19:58:18.949Z,24.50
2019-06-19T20:00:45.304Z,24.40
2019-06-19T20:03:11.808Z,24.30
2019-06-19T20:05:38.194Z,24.30
2019-06-19T20:08:04.856Z,24.20
2019-06-19T20:10:45.490Z,24.00
2019-06-19T20:12:59.964Z,23.90
2019-06-19T20:15:26.759Z,23.80
2019-06-19T20:17:53.501Z,23.80
2019-06-19T20:20:21.055Z,23.80
2019-06-19T20:22:47.398Z,23.70
2019-06-19T20:25:13.929Z,23.70
2019-06-19T20:27:40.271Z,23.60
2019-06-19T20:30:10.507Z,23.50
2019-06-19T20:32:46.382Z,23.40
2019-06-19T20:35:06.666Z,23.30
2019-06-19T20:37:33.024Z,23.30
2019-06-19T20:39:59.671Z,23.30
2019-06-19T20:42:26.187Z,23.20
2019-06-19T20:44:52.843Z,23.20
2019-06-19T20:47:22.819Z,23.10
2019-06-19T20:49:47.807Z,23.10
2019-06-19T20:52:19.353Z,23.00
2019-06-19T20:54:43.225Z,22.90
2019-06-19T20:57:10.273Z,23.00
2019-06-19T20:59:37.012Z,22.90
2019-06-19T21:02:03.415Z,22.80
2019-06-19T21:04:32.125Z,22.80
2019-06-19T21:06:58.635Z,22.70
2019-06-19T21:09:29.051Z,22.50
2019-06-19T21:11:53.550Z,22.50
2019-06-19T21:14:28.319Z,22.60
2019-06-19T21:16:49.222Z,22.50
2019-06-19T21:19:15.596Z,22.50
2019-06-19T21:21:41.992Z,22.40
2019-06-19T21:24:08.391Z,22.40
2019-06-19T21:26:34.767Z,22.30
2019-06-19T21:29:01.157Z,22.10
2019-06-19T21:31:28.522Z,22.20
2019-06-19T21:33:54.834Z,22.10
2019-06-19T21:36:21.205Z,22.00
2019-06-19T21:38:47.947Z,22.00
2019-06-19T21:41:14.273Z,22.00
2019-06-19T21:43:40.628Z,21.90
2019-06-19T21:46:07.007Z,21.80
2019-06-19T21:48:33.346Z,21.90
2019-06-19T21:50:59.844Z,21.70
2019-06-19T21:53:26.648Z,21.70
2019-06-19T21:55:53.373Z,21.70
2019-06-19T21:58:19.724Z,21.80
2019-06-19T22:00:52.987Z,21.80
2019-06-19T22:03:21.214Z,21.80
2019-06-19T22:05:47.564Z,21.70
2019-06-19T22:08:13.899Z,21.70
2019-06-19T22:10:40.420Z,21.60
2019-06-19T22:13:07.139Z,21.60
2019-06-19T22:15:34.790Z,21.50
2019-06-19T22:18:01.132Z,21.50
2019-06-19T22:20:27.455Z,21.50
2019-06-19T22:22:53.793Z,21.50
2019-06-19T22:25:21.217Z,21.40
2019-06-19T22:27:47.587Z,21.30
2019-06-19T22:30:17.965Z,21.30
2019-06-19T22:32:44.390Z,21.30
2019-06-19T22:35:10.923Z,21.20
2019-06-19T22:37:37.258Z,21.20
2019-06-19T22:40:05.906Z,21.20
2019-06-19T22:42:32.691Z,21.20
2019-06-19T22:44:59.042Z,21.20
2019-06-19T22:47:25.391Z,21.10
2019-06-19T22:49:51.712Z,21.10
2019-06-19T22:52:19.037Z,21.10
2019-06-19T22:54:45.359Z,21.20
2019-06-19T22:57:11.806Z,21.10
2019-06-19T22:59:38.123Z,21.10
2019-06-19T23:02:09.380Z,21.10
2019-06-19T23:04:35.719Z,21.10
2019-06-19T23:07:02.075Z,21.10
2019-06-19T23:09:28.401Z,21.10
2019-06-19T23:11:55.681Z,21.10
2019-06-19T23:14:22.010Z,21.10
2019-06-19T23:16:49.656Z,21.10
2019-06-19T23:19:15.999Z,21.10
2019-06-19T23:21:42.359Z,21.00
2019-06-19T23:24:08.658Z,21.00
2019-06-19T23:26:36.388Z,21.00
2019-06-19T23:29:02.934Z,21.00
2019-06-19T23:31:29.586Z,21.20
2019-06-19T23:33:55.959Z,21.10
2019-06-19T23:36:22.301Z,21.10
2019-06-19T23:38:48.649Z,21.20
2019-06-19T23:41:14.968Z,21.30
2019-06-19T23:43:41.303Z,21.30
2019-06-19T23:46:07.635Z,21.30
2019-06-19T23:48:33.994Z,21.30
2019-06-19T23:51:00.295Z,21.20
2019-06-19T23:53:26.616Z,21.30
2019-06-19T23:55:52.993Z,21.20
2019-06-19T23:58:19.514Z,21.10
